Time;durP1;ratioP1;P1;durP2;ratioP2;P2;SDS_P1;SDS_P2;PMS_P1;PMS_P2;Temp;Humidity;BMP_temperature;BMP_pressure;BME280_temperature;BME280_humidity;BME280_pressure;Samples;Min_cycle;Max_cycle;Signal;HPM_P1;HPM_P2
2023/02/28 00:01:22;;;;;;;4.90;4.45;;;;;;;;;;4992667;28;20696;-43
2023/02/28 00:03:48;;;;;;;5.55;4.05;;;;;;;;;;4993113;28;20184;-43
2023/02/28 00:06:14;;;;;;;4.87;4.37;;;;;;;;;;4993321;28;20672;-43
2023/02/28 00:08:40;;;;;;;8.03;4.70;;;;;;;;;;4993375;28;20408;-43
2023/02/28 00:11:08;;;;;;;6.67;4.27;;;;;;;;;;4992775;28;20431;-43
2023/02/28 00:13:37;;;;;;;8.15;5.00;;;;;;;;;;4993386;28;20559;-43
2023/02/28 00:16:05;;;;;;;5.88;4.43;;;;;;;;;;4996843;28;20189;-43
2023/02/28 00:18:31;;;;;;;5.22;4.47;;;;;;;;;;4993093;28;20212;-43
2023/02/28 00:20:58;;;;;;;6.85;4.88;;;;;;;;;;4992668;28;20302;-43
2023/02/28 00:23:24;;;;;;;8.82;6.35;;;;;;;;;;4993785;28;20689;-43
2023/02/28 00:25:50;;;;;;;9.27;5.75;;;;;;;;;;4994837;28;20182;-43
2023/02/28 00:28:16;;;;;;;6.22;5.63;;;;;;;;;;4993101;28;20173;-43
2023/02/28 00:30:42;;;;;;;8.27;4.93;;;;;;;;;;4992407;28;20223;-43
2023/02/28 00:33:08;;;;;;;4.87;4.47;;;;;;;;;;4990022;28;20428;-43
2023/02/28 00:35:34;;;;;;;6.50;5.43;;;;;;;;;;4992788;28;20986;-43
2023/02/28 00:38:00;;;;;;;7.50;5.27;;;;;;;;;;4993436;28;20493;-43
2023/02/28 00:40:26;;;;;;;5.35;4.85;;;;;;;;;;4992089;28;20423;-43
2023/02/28 00:42:52;;;;;;;9.97;6.00;;;;;;;;;;4996307;28;20297;-43
2023/02/28 00:45:18;;;;;;;7.40;5.57;;;;;;;;;;4992535;28;20413;-44
2023/02/28 00:47:46;;;;;;;5.40;4.90;;;;;;;;;;4992482;28;20455;-43
2023/02/28 00:50:12;;;;;;;9.85;5.05;;;;;;;;;;4992086;28;20184;-43
2023/02/28 00:52:38;;;;;;;6.05;5.10;;;;;;;;;;4992044;28;20212;-43
2023/02/28 00:55:05;;;;;;;4.00;3.70;;;;;;;;;;4994614;28;20177;-43
2023/02/28 00:57:31;;;;;;;10.60;4.45;;;;;;;;;;4992730;28;20212;-43
2023/02/28 00:59:57;;;;;;;6.20;4.82;;;;;;;;;;4997624;28;20184;-43
2023/02/28 01:02:23;;;;;;;7.50;4.82;;;;;;;;;;4991761;28;20200;-43
2023/02/28 01:04:49;;;;;;;7.05;4.63;;;;;;;;;;4992686;28;20176;-43
2023/02/28 01:07:15;;;;;;;5.30;4.80;;;;;;;;;;4992692;28;20184;-43
2023/02/28 01:09:42;;;;;;;7.63;4.00;;;;;;;;;;4992489;28;20173;-43
2023/02/28 01:12:08;;;;;;;5.20;4.70;;;;;;;;;;4995300;28;20668;-44
2023/02/28 01:14:34;;;;;;;7.25;4.47;;;;;;;;;;4992531;28;20189;-43
2023/02/28 01:17:01;;;;;;;7.10;4.45;;;;;;;;;;4999360;28;20183;-43
2023/02/28 01:19:27;;;;;;;4.57;4.18;;;;;;;;;;4992348;28;20780;-43
2023/02/28 01:21:53;;;;;;;7.50;4.60;;;;;;;;;;4991631;28;20211;-43
2023/02/28 01:24:19;;;;;;;5.17;4.67;;;;;;;;;;4992301;28;20208;-43
2023/02/28 01:26:45;;;;;;;5.32;4.68;;;;;;;;;;4992572;28;20762;-43
2023/02/28 01:29:11;;;;;;;6.00;4.30;;;;;;;;;;4997245;28;20185;-43
2023/02/28 01:31:37;;;;;;;5.38;4.25;;;;;;;;;;4998055;28;20205;-43
2023/02/28 01:34:03;;;;;;;6.18;4.60;;;;;;;;;;4992114;28;20197;-43
2023/02/28 01:36:30;;;;;;;6.43;5.80;;;;;;;;;;4992574;28;20185;-43
2023/02/28 01:38:56;;;;;;;7.47;6.15;;;;;;;;;;4995789;28;20184;-43
2023/02/28 01:41:33;;;;;;;15.95;5.80;;;;;;;;;;4991478;28;20192;-43
2023/02/28 01:44:05;;;;;;;8.05;5.35;;;;;;;;;;4992649;28;20172;-43
2023/02/28 01:46:31;;;;;;;6.93;4.85;;;;;;;;;;4997081;28;20169;-43
2023/02/28 01:49:09;;;;;;;7.20;4.38;;;;;;;;;;4992096;28;20201;-43
2023/02/28 01:51:45;;;;;;;5.00;4.25;;;;;;;;;;4991556;28;20204;-43
2023/02/28 01:54:13;;;;;;;5.03;4.53;;;;;;;;;;4991122;28;20228;-43
2023/02/28 01:56:41;;;;;;;5.28;4.10;;;;;;;;;;4991924;28;20194;-43
2023/02/28 01:59:07;;;;;;;4.90;4.30;;;;;;;;;;4998391;28;20181;-43
2023/02/28 02:01:33;;;;;;;5.03;4.37;;;;;;;;;;4990444;28;20215;-43
2023/02/28 02:04:01;;;;;;;5.40;4.33;;;;;;;;;;4995050;28;20419;-43
2023/02/28 02:06:34;;;;;;;5.38;3.65;;;;;;;;;;4995498;28;20412;-43
2023/02/28 02:09:00;;;;;;;5.65;4.10;;;;;;;;;;4995598;28;20183;-43
2023/02/28 02:11:29;;;;;;;7.07;5.40;;;;;;;;;;4999845;28;20193;-43
2023/02/28 02:14:13;;;;;;;4.45;4.05;;;;;;;;;;4995634;28;20412;-43
2023/02/28 02:16:56;;;;;;;6.60;3.85;;;;;;;;;;4995660;28;20602;-43
2023/02/28 02:19:30;;;;;;;4.72;3.83;;;;;;;;;;4990980;28;20185;-43
2023/02/28 02:22:05;;;;;;;5.18;4.57;;;;;;;;;;4994887;28;20207;-43
2023/02/28 02:24:31;;;;;;;6.85;4.30;;;;;;;;;;4995526;28;20254;-43
2023/02/28 02:27:17;;;;;;;5.50;5.00;;;;;;;;;;4995305;28;20641;-43
2023/02/28 02:30:02;;;;;;;7.78;3.95;;;;;;;;;;4995181;28;20404;-43
2023/02/28 02:32:57;;;;;;;8.90;4.70;;;;;;;;;;4995069;28;20208;-43
2023/02/28 02:35:33;;;;;;;7.82;5.00;;;;;;;;;;5018368;28;20667;-43
2023/02/28 02:38:17;;;;;;;5.00;4.32;;;;;;;;;;4995455;28;20262;-43
2023/02/28 02:40:44;;;;;;;6.40;4.78;;;;;;;;;;4994379;28;20196;-43
2023/02/28 02:43:16;;;;;;;8.88;4.32;;;;;;;;;;4995111;28;20212;-43
2023/02/28 02:45:42;;;;;;;11.40;4.88;;;;;;;;;;4990015;28;20180;-43
2023/02/28 02:48:11;;;;;;;4.70;4.30;;;;;;;;;;4993221;28;20173;-43
2023/02/28 02:50:39;;;;;;;5.25;4.00;;;;;;;;;;4993131;28;20490;-43
2023/02/28 02:53:06;;;;;;;5.70;4.85;;;;;;;;;;4993989;28;20297;-43
2023/02/28 02:55:34;;;;;;;4.57;3.92;;;;;;;;;;4994825;28;20189;-42
2023/02/28 02:58:03;;;;;;;5.63;5.13;;;;;;;;;;4994915;28;20221;-43
2023/02/28 03:00:41;;;;;;;4.70;4.30;;;;;;;;;;4994220;28;20207;-43
2023/02/28 03:03:09;;;;;;;5.10;4.70;;;;;;;;;;4994697;28;20207;-43
2023/02/28 03:05:40;;;;;;;5.35;4.13;;;;;;;;;;4994696;28;20185;-43
2023/02/28 03:08:06;;;;;;;5.78;4.43;;;;;;;;;;4994794;28;20187;-43
2023/02/28 03:10:37;;;;;;;6.85;4.68;;;;;;;;;;4994104;28;20165;-43
2023/02/28 03:13:12;;;;;;;6.32;4.40;;;;;;;;;;4994469;28;20183;-43
2023/02/28 03:15:52;;;;;;;5.10;4.60;;;;;;;;;;4993796;28;20211;-43
2023/02/28 03:18:25;;;;;;;6.68;5.20;;;;;;;;;;4991060;28;20189;-43
2023/02/28 03:21:04;;;;;;;4.60;4.15;;;;;;;;;;4993708;28;20211;-43
2023/02/28 03:23:36;;;;;;;5.20;4.70;;;;;;;;;;4994402;28;20219;-43
2023/02/28 03:26:04;;;;;;;4.45;3.95;;;;;;;;;;4994206;28;20185;-43
2023/02/28 03:28:32;;;;;;;4.93;4.25;;;;;;;;;;4994520;28;20185;-43
2023/02/28 03:31:09;;;;;;;6.65;4.72;;;;;;;;;;4993589;28;20244;-43
2023/02/28 03:33:41;;;;;;;7.78;4.20;;;;;;;;;;4993893;28;20599;-43
2023/02/28 03:36:15;;;;;;;6.40;4.68;;;;;;;;;;4994183;28;20187;-42
2023/02/28 03:38:46;;;;;;;5.38;4.47;;;;;;;;;;4994103;28;20169;-43
2023/02/28 03:41:17;;;;;;;5.35;4.85;;;;;;;;;;4989945;28;20197;-43
2023/02/28 03:43:47;;;;;;;4.65;4.22;;;;;;;;;;4993953;28;20205;-43
2023/02/28 03:46:16;;;;;;;12.68;5.22;;;;;;;;;;4994031;28;20192;-43
2023/02/28 03:48:49;;;;;;;5.20;4.70;;;;;;;;;;4993973;28;20212;-43
2023/02/28 03:51:18;;;;;;;5.03;4.38;;;;;;;;;;4986266;28;20299;-43
2023/02/28 03:53:47;;;;;;;6.88;4.88;;;;;;;;;;4993843;28;20196;-43
2023/02/28 03:56:33;;;;;;;5.03;4.53;;;;;;;;;;4993900;28;20685;-43
2023/02/28 03:59:05;;;;;;;9.43;7.72;;;;;;;;;;4991836;28;20197;-43
2023/02/28 04:01:31;;;;;;;6.25;4.72;;;;;;;;;;4992908;28;20562;-42
2023/02/28 04:03:57;;;;;;;6.10;5.10;;;;;;;;;;4993800;28;20165;-43
2023/02/28 04:06:23;;;;;;;7.93;5.67;;;;;;;;;;4987873;28;20979;-43
2023/02/28 04:08:49;;;;;;;10.20;5.43;;;;;;;;;;4993545;28;20404;-43
2023/02/28 04:11:18;;;;;;;5.70;5.15;;;;;;;;;;4992989;28;20550;-43
2023/02/28 04:13:44;;;;;;;5.32;4.28;;;;;;;;;;4993472;28;20185;-42
2023/02/28 04:16:12;;;;;;;4.93;4.53;;;;;;;;;;4993431;28;20675;-43
2023/02/28 04:18:38;;;;;;;4.82;4.38;;;;;;;;;;4993365;28;20599;-42
2023/02/28 04:21:04;;;;;;;8.27;4.80;;;;;;;;;;4992621;28;20271;-43
2023/02/28 04:23:31;;;;;;;5.50;4.45;;;;;;;;;;4993352;28;20208;-43
2023/02/28 04:25:56;;;;;;;8.38;4.20;;;;;;;;;;4993146;28;20181;-43
2023/02/28 04:28:22;;;;;;;4.50;4.10;;;;;;;;;;4993200;28;20220;-43
2023/02/28 04:30:54;;;;;;;4.90;4.50;;;;;;;;;;4992286;28;20432;-43
2023/02/28 04:33:20;;;;;;;4.18;3.75;;;;;;;;;;4993273;28;20428;-43
2023/02/28 04:35:46;;;;;;;6.50;4.97;;;;;;;;;;4993133;28;20294;-43
2023/02/28 04:38:11;;;;;;;4.33;3.93;;;;;;;;;;4993138;28;20431;-43
2023/02/28 04:40:37;;;;;;;6.47;4.30;;;;;;;;;;4992200;28;20494;-43
2023/02/28 04:43:03;;;;;;;4.73;4.33;;;;;;;;;;4992861;28;20432;-42
2023/02/28 04:45:32;;;;;;;5.63;5.13;;;;;;;;;;4992807;28;20444;-43
2023/02/28 04:47:58;;;;;;;4.45;4.05;;;;;;;;;;4992873;28;20179;-43
2023/02/28 04:50:24;;;;;;;7.88;4.22;;;;;;;;;;4992189;28;20181;-43
2023/02/28 04:52:50;;;;;;;4.80;4.40;;;;;;;;;;4992723;28;20285;-43
2023/02/28 04:55:16;;;;;;;6.03;4.77;;;;;;;;;;4992887;28;20232;-43
2023/02/28 04:57:42;;;;;;;4.07;3.63;;;;;;;;;;4992778;28;20683;-43
2023/02/28 05:00:11;;;;;;;6.40;4.75;;;;;;;;;;4992012;28;20165;-43
2023/02/28 05:02:37;;;;;;;4.55;4.15;;;;;;;;;;4992660;28;20208;-42
2023/02/28 05:05:03;;;;;;;4.90;4.00;;;;;;;;;;4992560;28;20192;-43
2023/02/28 05:07:29;;;;;;;11.63;5.05;;;;;;;;;;4992698;28;20648;-43
2023/02/28 05:09:55;;;;;;;5.30;4.30;;;;;;;;;;4992455;28;20216;-43
2023/02/28 05:12:21;;;;;;;6.23;5.73;;;;;;;;;;4991753;28;20443;-43
2023/02/28 05:14:47;;;;;;;5.63;4.80;;;;;;;;;;4992473;28;20831;-43
2023/02/28 05:17:13;;;;;;;5.57;4.67;;;;;;;;;;4992650;28;20826;-42
2023/02/28 05:19:39;;;;;;;7.17;4.60;;;;;;;;;;4992559;28;20431;-43
2023/02/28 05:22:05;;;;;;;4.53;4.13;;;;;;;;;;4991675;28;20460;-43
2023/02/28 05:24:31;;;;;;;5.80;4.60;;;;;;;;;;4992383;28;20420;-43
2023/02/28 05:26:57;;;;;;;4.57;4.13;;;;;;;;;;4992237;28;20424;-43
2023/02/28 05:29:23;;;;;;;6.85;4.57;;;;;;;;;;4992328;28;20892;-43
2023/02/28 05:31:49;;;;;;;5.97;5.30;;;;;;;;;;4991594;28;20263;-43
2023/02/28 05:34:15;;;;;;;5.38;4.85;;;;;;;;;;4992240;28;20428;-43
2023/02/28 05:36:41;;;;;;;4.85;4.50;;;;;;;;;;4992404;28;20173;-43
2023/02/28 05:39:12;;;;;;;8.90;4.65;;;;;;;;;;4989126;28;20251;-42
2023/02/28 05:41:38;;;;;;;5.18;4.55;;;;;;;;;;4997871;28;20227;-43
2023/02/28 05:44:04;;;;;;;5.10;4.25;;;;;;;;;;4998948;28;20227;-43
2023/02/28 05:46:30;;;;;;;5.50;3.72;;;;;;;;;;4998628;28;20173;-43
2023/02/28 05:48:57;;;;;;;5.57;5.00;;;;;;;;;;4998587;28;20267;-43
2023/02/28 05:51:23;;;;;;;4.75;4.30;;;;;;;;;;5000973;28;20450;-41
2023/02/28 05:53:49;;;;;;;5.77;4.70;;;;;;;;;;5001427;28;20555;-41
2023/02/28 05:56:15;;;;;;;5.88;5.05;;;;;;;;;;4998446;28;20499;-41
2023/02/28 05:58:41;;;;;;;6.20;5.60;;;;;;;;;;4998840;28;20172;-41
2023/02/28 06:01:26;;;;;;;5.20;4.53;;;;;;;;;;5000265;28;20223;-41
2023/02/28 06:03:52;;;;;;;5.97;4.95;;;;;;;;;;4999281;28;20459;-41
2023/02/28 06:06:18;;;;;;;5.93;4.73;;;;;;;;;;5000948;28;20260;-40
2023/02/28 06:08:44;;;;;;;5.60;5.07;;;;;;;;;;4998157;28;20467;-41
2023/02/28 06:11:10;;;;;;;8.30;4.30;;;;;;;;;;5003305;28;20447;-41
2023/02/28 06:13:36;;;;;;;6.10;5.47;;;;;;;;;;5005011;28;20181;-41
2023/02/28 06:16:02;;;;;;;5.13;4.57;;;;;;;;;;4998918;28;20189;-40
2023/02/28 06:18:28;;;;;;;6.83;5.80;;;;;;;;;;4998011;28;20415;-44
2023/02/28 06:20:55;;;;;;;6.15;4.78;;;;;;;;;;4997025;28;20428;-42
2023/02/28 06:23:21;;;;;;;7.88;4.70;;;;;;;;;;5001676;28;20337;-41
2023/02/28 06:25:49;;;;;;;5.57;5.15;;;;;;;;;;4997721;28;20668;-40
2023/02/28 06:28:15;;;;;;;5.80;5.03;;;;;;;;;;4999768;28;20168;-40
2023/02/28 06:30:41;;;;;;;5.37;4.07;;;;;;;;;;4996876;28;20187;-42
2023/02/28 06:33:07;;;;;;;5.70;5.03;;;;;;;;;;4994700;28;20895;-43
2023/02/28 06:35:32;;;;;;;5.60;5.10;;;;;;;;;;4997566;28;21118;-41
2023/02/28 06:37:58;;;;;;;6.97;5.27;;;;;;;;;;4997950;28;20803;-41
2023/02/28 06:40:24;;;;;;;8.00;5.70;;;;;;;;;;5003015;28;20412;-41
2023/02/28 06:42:50;;;;;;;5.23;4.60;;;;;;;;;;4997972;28;20467;-41
2023/02/28 06:45:16;;;;;;;6.00;4.80;;;;;;;;;;4998755;28;20503;-40
2023/02/28 06:47:43;;;;;;;5.95;5.45;;;;;;;;;;4996800;28;20458;-41
2023/02/28 06:50:10;;;;;;;10.30;7.63;;;;;;;;;;4986082;28;20177;-41
2023/02/28 06:52:37;;;;;;;9.25;7.45;;;;;;;;;;4994839;28;20212;-41
2023/02/28 06:55:03;;;;;;;6.25;5.65;;;;;;;;;;4994890;28;20181;-40
2023/02/28 06:57:30;;;;;;;4.85;4.45;;;;;;;;;;4995101;28;20268;-40
2023/02/28 06:59:57;;;;;;;4.55;4.15;;;;;;;;;;4994771;28;20185;-41
2023/02/28 07:02:23;;;;;;;5.63;4.95;;;;;;;;;;4997435;28;20254;-43
2023/02/28 07:04:49;;;;;;;3.60;3.30;;;;;;;;;;4994549;28;20610;-43
2023/02/28 07:07:15;;;;;;;6.00;4.13;;;;;;;;;;4994234;28;20412;-42
2023/02/28 07:09:41;;;;;;;5.63;4.30;;;;;;;;;;4994710;28;20912;-42
2023/02/28 07:12:07;;;;;;;4.60;4.20;;;;;;;;;;4994075;28;20916;-42
2023/02/28 07:14:33;;;;;;;4.70;4.30;;;;;;;;;;4994789;28;20910;-42
2023/02/28 07:16:59;;;;;;;4.10;3.73;;;;;;;;;;4993345;28;20820;-42
2023/02/28 07:19:25;;;;;;;3.67;3.40;;;;;;;;;;4993359;28;20765;-42
2023/02/28 07:21:51;;;;;;;3.97;3.65;;;;;;;;;;4993331;28;20499;-42
2023/02/28 07:24:17;;;;;;;5.43;4.27;;;;;;;;;;4994369;28;20267;-43
2023/02/28 07:26:43;;;;;;;4.65;4.25;;;;;;;;;;4993000;28;20823;-42
2023/02/28 07:29:09;;;;;;;5.00;3.80;;;;;;;;;;4993854;28;20180;-43
2023/02/28 07:31:35;;;;;;;4.63;4.23;;;;;;;;;;4993507;28;20201;-43
2023/02/28 07:34:02;;;;;;;7.65;3.85;;;;;;;;;;4993896;28;20474;-43
2023/02/28 07:36:28;;;;;;;3.58;3.28;;;;;;;;;;4988651;28;20469;-43
2023/02/28 07:38:54;;;;;;;3.93;3.60;;;;;;;;;;4993376;28;20193;-43
2023/02/28 07:41:21;;;;;;;4.40;3.38;;;;;;;;;;4993336;28;20485;-43
2023/02/28 07:43:47;;;;;;;4.55;3.60;;;;;;;;;;4994003;28;20634;-44
2023/02/28 07:46:15;;;;;;;6.90;4.20;;;;;;;;;;4994462;28;20173;-44
2023/02/28 07:48:42;;;;;;;4.75;3.88;;;;;;;;;;4994176;28;20664;-44
2023/02/28 07:51:08;;;;;;;5.20;3.95;;;;;;;;;;4994401;28;20732;-44
2023/02/28 07:53:34;;;;;;;4.77;3.30;;;;;;;;;;4994749;28;20312;-45
2023/02/28 07:56:01;;;;;;;7.20;3.88;;;;;;;;;;4994498;28;20953;-44
2023/02/28 07:58:27;;;;;;;3.88;3.58;;;;;;;;;;4994760;28;20601;-43
2023/02/28 08:00:54;;;;;;;6.85;3.50;;;;;;;;;;4993746;28;20204;-45
2023/02/28 08:03:20;;;;;;;4.30;3.90;;;;;;;;;;4995467;28;20212;-44
2023/02/28 08:05:47;;;;;;;5.35;4.05;;;;;;;;;;4996586;28;20176;-43
2023/02/28 08:08:13;;;;;;;4.07;3.65;;;;;;;;;;4993523;28;20177;-45
2023/02/28 08:10:39;;;;;;;6.40;3.75;;;;;;;;;;4992873;28;20173;-46
2023/02/28 08:13:05;;;;;;;8.47;4.03;;;;;;;;;;4993867;28;20243;-45
2023/02/28 08:15:31;;;;;;;5.60;3.80;;;;;;;;;;4993652;28;20417;-44
2023/02/28 08:17:57;;;;;;;3.87;3.47;;;;;;;;;;4993422;28;20804;-44
2023/02/28 08:20:24;;;;;;;8.10;3.80;;;;;;;;;;4992839;28;20963;-46
2023/02/28 08:22:49;;;;;;;4.53;4.10;;;;;;;;;;4993602;28;20216;-45
2023/02/28 08:25:15;;;;;;;5.87;3.67;;;;;;;;;;4993829;28;20259;-44
2023/02/28 08:27:41;;;;;;;3.60;3.23;;;;;;;;;;4993737;28;20413;-44
2023/02/28 08:30:08;;;;;;;7.05;4.35;;;;;;;;;;4992822;28;20757;-44
2023/02/28 08:32:34;;;;;;;5.20;3.67;;;;;;;;;;4992954;28;20194;-45
2023/02/28 08:35:00;;;;;;;5.23;3.63;;;;;;;;;;4993340;28;20185;-44
2023/02/28 08:37:26;;;;;;;9.00;7.93;;;;;;;;;;4993088;28;20531;-44
2023/02/28 08:39:52;;;;;;;5.15;3.97;;;;;;;;;;4992805;28;20491;-44
2023/02/28 08:42:18;;;;;;;4.20;3.77;;;;;;;;;;4992459;28;20303;-43
2023/02/28 08:44:44;;;;;;;7.20;4.43;;;;;;;;;;4992806;28;20412;-45
2023/02/28 08:47:10;;;;;;;4.23;3.40;;;;;;;;;;4992758;28;20419;-45
2023/02/28 08:49:37;;;;;;;4.00;3.13;;;;;;;;;;4993036;28;20408;-47
2023/02/28 08:52:03;;;;;;;5.53;4.13;;;;;;;;;;4991079;28;20966;-43
2023/02/28 08:54:31;;;;;;;3.50;3.20;;;;;;;;;;4992981;28;20422;-43
2023/02/28 08:56:57;;;;;;;4.50;3.30;;;;;;;;;;4992798;28;20417;-43
2023/02/28 08:59:23;;;;;;;5.87;4.40;;;;;;;;;;4992607;28;20456;-43
2023/02/28 09:01:49;;;;;;;4.53;3.33;;;;;;;;;;4991310;28;20921;-43
2023/02/28 09:04:15;;;;;;;3.27;3.00;;;;;;;;;;4992350;28;20417;-43
2023/02/28 09:06:41;;;;;;;3.67;2.97;;;;;;;;;;4992557;28;20840;-43
2023/02/28 09:09:07;;;;;;;3.37;3.07;;;;;;;;;;4992396;28;20407;-43
2023/02/28 09:11:34;;;;;;;3.33;2.80;;;;;;;;;;4992015;28;20446;-44
2023/02/28 09:14:00;;;;;;;2.90;2.70;;;;;;;;;;4992104;28;20452;-44
2023/02/28 09:16:26;;;;;;;4.23;3.27;;;;;;;;;;4992719;28;20414;-44
2023/02/28 09:18:52;;;;;;;4.50;3.57;;;;;;;;;;4992390;28;20469;-44
2023/02/28 09:21:19;;;;;;;4.50;3.23;;;;;;;;;;4991802;28;20849;-44
2023/02/28 09:23:45;;;;;;;7.73;2.77;;;;;;;;;;4992772;28;20845;-43
2023/02/28 09:26:16;;;;;;;5.40;2.60;;;;;;;;;;4992842;28;20753;-44
2023/02/28 09:28:42;;;;;;;2.73;2.53;;;;;;;;;;4992716;28;20401;-44
2023/02/28 09:31:12;;;;;;;3.40;3.07;;;;;;;;;;4992552;28;20443;-44
2023/02/28 09:33:38;;;;;;;2.77;2.57;;;;;;;;;;4994241;28;20952;-45
2023/02/28 09:36:04;;;;;;;3.00;2.70;;;;;;;;;;4993716;28;20418;-43
2023/02/28 09:38:30;;;;;;;2.90;2.70;;;;;;;;;;4992339;28;20463;-42
2023/02/28 09:40:57;;;;;;;3.17;2.90;;;;;;;;;;4991499;28;20920;-44
2023/02/28 09:43:25;;;;;;;3.50;2.90;;;;;;;;;;4991964;28;20515;-43
2023/02/28 09:46:12;;;;;;;7.63;3.10;;;;;;;;;;4993166;28;20416;-44
2023/02/28 09:48:42;;;;;;;2.70;2.60;;;;;;;;;;4991744;28;20401;-44
2023/02/28 09:51:27;;;;;;;3.80;2.53;;;;;;;;;;4983382;28;20490;-44
2023/02/28 09:53:53;;;;;;;2.57;2.37;;;;;;;;;;4990059;28;21020;-44
2023/02/28 09:56:28;;;;;;;3.40;2.43;;;;;;;;;;4991777;28;20492;-44
2023/02/28 09:58:54;;;;;;;3.43;2.70;;;;;;;;;;4991458;28;20419;-44
2023/02/28 10:01:25;;;;;;;3.00;2.63;;;;;;;;;;4991345;28;20428;-44
2023/02/28 10:03:57;;;;;;;2.10;1.87;;;;;;;;;;4992305;28;20865;-45
2023/02/28 10:06:26;;;;;;;2.20;2.00;;;;;;;;;;4992031;28;20500;-45
2023/02/28 10:09:13;;;;;;;2.50;2.30;;;;;;;;;;4991393;28;20471;-45
2023/02/28 10:11:40;;;;;;;2.30;2.10;;;;;;;;;;4990810;28;20813;-43
2023/02/28 10:14:06;;;;;;;4.13;2.93;;;;;;;;;;4991773;28;20411;-44
2023/02/28 10:16:37;;;;;;;3.90;3.07;;;;;;;;;;4991916;28;20407;-45
2023/02/28 10:19:05;;;;;;;3.00;2.53;;;;;;;;;;4991485;28;20807;-43
2023/02/28 10:21:48;;;;;;;2.80;2.60;;;;;;;;;;4990727;28;20426;-46
2023/02/28 10:24:16;;;;;;;2.40;2.20;;;;;;;;;;4990134;28;20433;-43
2023/02/28 10:26:45;;;;;;;2.80;2.23;;;;;;;;;;4995528;28;20836;-44
2023/02/28 10:29:11;;;;;;;2.37;2.17;;;;;;;;;;4995217;28;20779;-44
2023/02/28 10:31:38;;;;;;;2.40;2.20;;;;;;;;;;4994490;28;20437;-44
2023/02/28 10:34:06;;;;;;;4.43;2.20;;;;;;;;;;4994928;28;20464;-44
2023/02/28 10:36:32;;;;;;;2.50;2.30;;;;;;;;;;4995336;28;20423;-44
2023/02/28 10:38:59;;;;;;;2.07;1.83;;;;;;;;;;4994933;28;20499;-44
2023/02/28 10:41:34;;;;;;;2.73;1.87;;;;;;;;;;4994437;28;20435;-44
2023/02/28 10:44:13;;;;;;;2.20;2.10;;;;;;;;;;4994666;28;20989;-44
2023/02/28 10:46:40;;;;;;;2.70;2.40;;;;;;;;;;4994758;28;20831;-44
2023/02/28 10:49:11;;;;;;;2.10;1.97;;;;;;;;;;4994763;28;20828;-44
2023/02/28 10:51:38;;;;;;;3.57;2.30;;;;;;;;;;4994394;28;20802;-44
2023/02/28 10:54:05;;;;;;;4.60;2.20;;;;;;;;;;4995105;28;20423;-43
2023/02/28 10:56:32;;;;;;;2.37;2.17;;;;;;;;;;4995034;28;20427;-43
2023/02/28 10:59:01;;;;;;;3.00;2.30;;;;;;;;;;4994844;28;20902;-44
2023/02/28 11:01:36;;;;;;;5.70;2.70;;;;;;;;;;4994152;28;20511;-44
2023/02/28 11:04:02;;;;;;;3.10;2.73;;;;;;;;;;4993105;28;20461;-44
2023/02/28 11:06:32;;;;;;;2.63;2.43;;;;;;;;;;4994547;28;20472;-44
2023/02/28 11:09:17;;;;;;;2.43;2.23;;;;;;;;;;4994604;28;20481;-44
2023/02/28 11:11:46;;;;;;;2.20;2.10;;;;;;;;;;4993763;28;20438;-44
2023/02/28 11:14:20;;;;;;;2.13;1.93;;;;;;;;;;4994724;28;20418;-44
2023/02/28 11:16:47;;;;;;;2.30;2.10;;;;;;;;;;5001725;28;20497;-44
2023/02/28 11:19:27;;;;;;;2.67;2.47;;;;;;;;;;4995675;28;20416;-45
2023/02/28 11:21:56;;;;;;;2.30;2.10;;;;;;;;;;4995079;28;20994;-46
2023/02/28 11:24:27;;;;;;;2.20;1.97;;;;;;;;;;4994416;28;20415;-46
2023/02/28 11:26:54;;;;;;;2.40;2.30;;;;;;;;;;4994906;28;20491;-44
2023/02/28 11:29:21;;;;;;;2.53;2.33;;;;;;;;;;4994756;28;20477;-43
2023/02/28 11:32:20;;;;;;;9.37;2.30;;;;;;;;;;4983787;28;20406;-43
2023/02/28 11:34:47;;;;;;;4.30;2.50;;;;;;;;;;4987270;28;20442;-42
2023/02/28 11:37:15;;;;;;;2.57;2.37;;;;;;;;;;4993591;28;20467;-46
2023/02/28 11:39:41;;;;;;;2.63;2.23;;;;;;;;;;4994412;28;20453;-46
2023/02/28 11:42:13;;;;;;;2.30;2.20;;;;;;;;;;4993371;28;20507;-44
2023/02/28 11:44:59;;;;;;;3.30;2.43;;;;;;;;;;4994128;28;20515;-44
2023/02/28 11:47:31;;;;;;;2.47;2.27;;;;;;;;;;4988354;28;20453;-44
2023/02/28 11:50:03;;;;;;;2.73;2.53;;;;;;;;;;4994306;28;20479;-42
2023/02/28 11:52:48;;;;;;;3.87;3.13;;;;;;;;;;4992624;28;20973;-44
2023/02/28 11:55:17;;;;;;;2.10;1.90;;;;;;;;;;4993977;28;20442;-44
2023/02/28 11:58:02;;;;;;;4.03;2.27;;;;;;;;;;4993755;28;20420;-43
2023/02/28 12:00:27;;;;;;;3.03;2.60;;;;;;;;;;4993693;28;20419;-45
2023/02/28 12:03:05;;;;;;;3.47;2.60;;;;;;;;;;4994025;28;20973;-43
2023/02/28 12:05:45;;;;;;;2.60;2.40;;;;;;;;;;4994220;28;20411;-45
2023/02/28 12:08:27;;;;;;;2.93;2.73;;;;;;;;;;4987560;28;20407;-46
2023/02/28 12:11:11;;;;;;;2.67;2.50;;;;;;;;;;4993581;28;20447;-45
2023/02/28 12:13:52;;;;;;;2.60;2.40;;;;;;;;;;4993096;28;20405;-45
2023/02/28 12:16:36;;;;;;;2.97;2.70;;;;;;;;;;4993635;28;20422;-46
2023/02/28 12:19:20;;;;;;;2.80;2.30;;;;;;;;;;4993301;28;20449;-45
2023/02/28 12:21:53;;;;;;;3.47;3.17;;;;;;;;;;4995384;28;20442;-46
2023/02/28 12:24:38;;;;;;;2.47;2.30;;;;;;;;;;4994332;28;20423;-45
2023/02/28 12:27:06;;;;;;;2.93;2.63;;;;;;;;;;4994532;28;20495;-45
2023/02/28 12:29:54;;;;;;;2.80;2.60;;;;;;;;;;4994672;28;20937;-46
2023/02/28 12:32:37;;;;;;;2.93;2.50;;;;;;;;;;4984972;28;20431;-44
2023/02/28 12:35:11;;;;;;;2.87;2.60;;;;;;;;;;4993018;28;20431;-43
2023/02/28 12:37:40;;;;;;;3.90;2.70;;;;;;;;;;4994395;28;20405;-46
2023/02/28 12:40:08;;;;;;;3.20;2.50;;;;;;;;;;4993093;28;20433;-43
2023/02/28 12:42:40;;;;;;;3.73;2.40;;;;;;;;;;4992419;28;20527;-46
2023/02/28 12:45:10;;;;;;;2.63;2.43;;;;;;;;;;4992470;28;20972;-43
2023/02/28 12:47:38;;;;;;;3.83;2.90;;;;;;;;;;4992721;28;20548;-46
2023/02/28 12:50:06;;;;;;;3.33;2.50;;;;;;;;;;4992890;28;20423;-44
2023/02/28 12:52:37;;;;;;;2.80;2.60;;;;;;;;;;4993038;28;20451;-44
2023/02/28 12:55:03;;;;;;;4.47;2.60;;;;;;;;;;4993111;28;20390;-44
2023/02/28 12:57:32;;;;;;;5.13;2.60;;;;;;;;;;4992372;28;20887;-43
2023/02/28 13:00:00;;;;;;;2.67;2.50;;;;;;;;;;4992240;28;20904;-44
2023/02/28 13:02:33;;;;;;;4.40;2.70;;;;;;;;;;4992184;28;20470;-43
2023/02/28 13:05:15;;;;;;;4.20;3.10;;;;;;;;;;4992387;28;20494;-44
2023/02/28 13:07:49;;;;;;;2.87;2.73;;;;;;;;;;4992523;28;20450;-43
2023/02/28 13:10:18;;;;;;;2.90;2.70;;;;;;;;;;4992500;28;20418;-45
2023/02/28 13:12:51;;;;;;;2.77;2.57;;;;;;;;;;4994455;28;20558;-47
2023/02/28 13:15:24;;;;;;;3.27;2.97;;;;;;;;;;4993917;28;20923;-46
2023/02/28 13:17:51;;;;;;;3.10;2.90;;;;;;;;;;4993971;28;20419;-45
2023/02/28 13:20:19;;;;;;;2.80;2.60;;;;;;;;;;4991903;28;20416;-44
2023/02/28 13:22:47;;;;;;;2.97;2.53;;;;;;;;;;4992117;28;20506;-44
2023/02/28 13:25:22;;;;;;;7.13;3.57;;;;;;;;;;4991548;28;20906;-43
2023/02/28 13:27:54;;;;;;;2.73;2.53;;;;;;;;;;4992923;28;20396;-44
2023/02/28 13:30:38;;;;;;;2.50;2.30;;;;;;;;;;4991915;28;20982;-47
2023/02/28 13:33:24;;;;;;;3.63;3.33;;;;;;;;;;4992639;28;20773;-46
2023/02/28 13:36:00;;;;;;;3.33;2.80;;;;;;;;;;4992784;28;20419;-45
2023/02/28 13:38:34;;;;;;;3.30;2.97;;;;;;;;;;4992516;28;20415;-42
2023/02/28 13:41:19;;;;;;;3.43;3.23;;;;;;;;;;4991450;28;20439;-42
2023/02/28 13:44:04;;;;;;;3.40;3.20;;;;;;;;;;4993650;28;20558;-44
2023/02/28 13:46:30;;;;;;;3.53;3.23;;;;;;;;;;4988004;28;20923;-44
2023/02/28 13:48:56;;;;;;;4.10;3.40;;;;;;;;;;4991793;28;20921;-44
2023/02/28 13:51:43;;;;;;;3.83;3.40;;;;;;;;;;4991481;28;20524;-42
2023/02/28 13:54:28;;;;;;;4.10;3.30;;;;;;;;;;4989155;28;20544;-47
2023/02/28 13:57:12;;;;;;;4.73;3.20;;;;;;;;;;4994462;28;20411;-42
2023/02/28 13:59:49;;;;;;;4.70;3.20;;;;;;;;;;4992999;28;20412;-42
2023/02/28 14:02:34;;;;;;;4.40;3.80;;;;;;;;;;4989000;28;20466;-44
2023/02/28 14:05:00;;;;;;;3.70;3.40;;;;;;;;;;4995733;28;20466;-42
2023/02/28 14:07:28;;;;;;;3.30;3.10;;;;;;;;;;4995871;28;20414;-44
2023/02/28 14:10:05;;;;;;;3.47;3.07;;;;;;;;;;4995704;28;20415;-44
2023/02/28 14:12:50;;;;;;;3.30;3.10;;;;;;;;;;4995802;28;20446;-44
2023/02/28 14:15:28;;;;;;;3.70;3.40;;;;;;;;;;4988495;28;20423;-42
2023/02/28 14:17:55;;;;;;;3.40;3.20;;;;;;;;;;4995351;28;20784;-42
2023/02/28 14:20:22;;;;;;;3.20;2.90;;;;;;;;;;4993888;28;20982;-43
2023/02/28 14:23:04;;;;;;;5.40;4.03;;;;;;;;;;4995148;28;20435;-42
2023/02/28 14:25:40;;;;;;;3.40;3.10;;;;;;;;;;4990457;28;20850;-42
2023/02/28 14:28:06;;;;;;;3.90;3.60;;;;;;;;;;4995223;28;20412;-42
2023/02/28 14:30:51;;;;;;;3.10;2.90;;;;;;;;;;4994585;28;20412;-42
2023/02/28 14:33:17;;;;;;;3.70;3.40;;;;;;;;;;4990867;28;20443;-42
2023/02/28 14:35:43;;;;;;;3.27;3.03;;;;;;;;;;4995102;28;20431;-42
2023/02/28 14:38:15;;;;;;;3.77;3.50;;;;;;;;;;4995163;28;20426;-42
2023/02/28 14:40:41;;;;;;;3.93;3.63;;;;;;;;;;4994433;28;20430;-43
2023/02/28 14:43:18;;;;;;;3.90;3.47;;;;;;;;;;4995808;28;20549;-43
2023/02/28 14:45:49;;;;;;;4.30;3.87;;;;;;;;;;4995286;28;20482;-47
2023/02/28 14:48:16;;;;;;;4.30;3.47;;;;;;;;;;4994981;28;20446;-42
2023/02/28 14:50:48;;;;;;;5.70;3.40;;;;;;;;;;4994305;28;20416;-42
2023/02/28 14:53:18;;;;;;;3.70;3.50;;;;;;;;;;4993306;28;20419;-42
2023/02/28 14:55:45;;;;;;;4.53;3.53;;;;;;;;;;4994896;28;20787;-44
2023/02/28 14:58:22;;;;;;;3.30;3.10;;;;;;;;;;4994699;28;20900;-42